createdAt,value
2023-04-09T00:03:59.002Z,23.80
2023-04-09T00:08:00.753Z,20.98
2023-04-09T00:12:03.402Z,20.15
2023-04-09T00:16:05.241Z,22.48
2023-04-09T00:20:07.879Z,19.30
2023-04-09T00:24:09.375Z,18.75
2023-04-09T00:28:10.996Z,19.83
2023-04-09T00:32:12.519Z,18.52
2023-04-09T00:36:14.101Z,19.30
2023-04-09T00:40:15.869Z,19.20
2023-04-09T00:44:17.433Z,19.25
2023-04-09T00:48:19.144Z,20.65
2023-04-09T00:52:21.387Z,21.30
2023-04-09T00:56:23.663Z,20.25
2023-04-09T01:00:25.484Z,19.38
2023-04-09T01:04:27.003Z,21.50
2023-04-09T01:08:33.398Z,22.50
2023-04-09T01:12:52.010Z,26.02
2023-04-09T01:17:05.622Z,22.98
2023-04-09T01:21:13.014Z,19.30
2023-04-09T01:25:50.398Z,20.05
2023-04-09T01:29:53.531Z,20.90
2023-04-09T01:33:55.574Z,20.73
2023-04-09T01:37:58.270Z,20.58
2023-04-09T01:42:00.863Z,19.92
2023-04-09T01:46:03.678Z,21.10
2023-04-09T01:50:05.893Z,20.17
2023-04-09T01:54:07.788Z,20.23
2023-04-09T01:58:09.396Z,20.52
2023-04-09T02:02:18.079Z,20.30
2023-04-09T02:06:34.619Z,20.60
2023-04-09T02:10:39.505Z,18.40
2023-04-09T02:14:41.453Z,20.13
2023-04-09T02:18:42.970Z,20.02
2023-04-09T02:22:45.663Z,19.67
2023-04-09T02:26:47.249Z,20.50
2023-04-09T02:30:48.719Z,19.77
2023-04-09T02:34:50.137Z,19.92
2023-04-09T02:38:51.784Z,20.67
2023-04-09T02:42:53.928Z,18.55
2023-04-09T02:46:56.215Z,19.23
2023-04-09T02:50:57.665Z,20.05
2023-04-09T02:54:59.082Z,19.42
2023-04-09T02:59:00.546Z,20.42
2023-04-09T03:03:02.309Z,18.48
2023-04-09T03:07:03.869Z,21.30
2023-04-09T03:11:05.380Z,20.67
2023-04-09T03:15:07.311Z,18.75
2023-04-09T03:19:08.777Z,18.77
2023-04-09T03:23:10.830Z,18.52
2023-04-09T03:27:12.256Z,18.33
2023-04-09T03:31:14.172Z,20.17
2023-04-09T03:35:15.817Z,19.42
2023-04-09T03:39:17.323Z,20.02
2023-04-09T03:43:18.768Z,18.02
2023-04-09T03:47:20.668Z,19.13
2023-04-09T03:51:22.160Z,20.25
2023-04-09T03:55:23.674Z,18.60
2023-04-09T03:59:25.259Z,21.13
2023-04-09T04:03:26.981Z,20.95
2023-04-09T04:07:28.458Z,18.65
2023-04-09T04:11:30.374Z,21.77
2023-04-09T04:15:31.895Z,18.88
2023-04-09T04:19:33.305Z,21.58
2023-04-09T04:23:34.817Z,20.85
2023-04-09T04:27:36.253Z,23.30
2023-04-09T04:31:37.776Z,23.13
2023-04-09T04:35:39.334Z,23.40
2023-04-09T04:39:40.876Z,24.20
2023-04-09T04:43:42.348Z,21.25
2023-04-09T04:47:43.824Z,20.70
2023-04-09T04:51:45.332Z,22.05
2023-04-09T04:55:46.937Z,23.10
2023-04-09T04:59:48.438Z,20.33
2023-04-09T05:03:49.986Z,20.92
2023-04-09T05:07:51.674Z,22.15
2023-04-09T05:11:53.190Z,19.30
2023-04-09T05:15:54.683Z,19.83
2023-04-09T05:19:57.779Z,21.13
2023-04-09T05:23:59.213Z,21.98
2023-04-09T05:28:00.879Z,21.58
2023-04-09T05:32:02.568Z,20.80
2023-04-09T05:36:04.789Z,23.33
2023-04-09T05:40:06.765Z,22.75
2023-04-09T05:44:08.233Z,22.17
2023-04-09T05:48:09.759Z,23.02
2023-04-09T05:52:11.267Z,21.73
2023-04-09T05:56:16.151Z,23.30
2023-04-09T06:00:18.371Z,23.67
2023-04-09T06:04:20.071Z,22.80
2023-04-09T06:08:21.617Z,30.10
2023-04-09T06:12:23.055Z,31.30
2023-04-09T06:16:24.506Z,25.52
2023-04-09T06:20:26.071Z,23.42
2023-04-09T06:24:27.490Z,24.60
2023-04-09T06:28:29.600Z,24.17
2023-04-09T06:32:33.607Z,25.23
2023-04-09T06:36:40.503Z,23.73
2023-04-09T06:40:42.528Z,23.63
2023-04-09T06:44:43.973Z,24.23
2023-04-09T06:48:46.414Z,23.40
2023-04-09T06:52:48.241Z,20.65
2023-04-09T06:56:49.730Z,23.63
2023-04-09T07:00:51.187Z,23.77
2023-04-09T07:04:52.875Z,23.50
2023-04-09T07:08:54.602Z,24.58
2023-04-09T07:12:56.507Z,21.83
2023-04-09T07:16:57.943Z,22.92
2023-04-09T07:20:59.497Z,24.15
2023-04-09T07:25:01.078Z,23.05
2023-04-09T07:29:03.771Z,23.52
2023-04-09T07:33:05.335Z,24.33
2023-04-09T07:37:06.866Z,24.02
2023-04-09T07:41:11.055Z,20.88
2023-04-09T07:45:12.627Z,21.65
2023-04-09T07:49:14.277Z,21.60
2023-04-09T07:53:16.497Z,20.45
2023-04-09T07:57:18.005Z,19.38
2023-04-09T08:01:24.635Z,20.17
2023-04-09T08:05:26.283Z,20.05
2023-04-09T08:09:27.694Z,18.92
2023-04-09T08:13:29.111Z,19.17
2023-04-09T08:17:31.232Z,18.48
2023-04-09T08:21:32.862Z,20.25
2023-04-09T08:25:34.323Z,20.08
2023-04-09T08:29:35.980Z,17.35
2023-04-09T08:33:37.870Z,18.88
2023-04-09T08:37:39.560Z,17.80
2023-04-09T08:41:46.225Z,15.90
2023-04-09T08:45:51.375Z,18.17
2023-04-09T08:49:52.912Z,16.15
2023-04-09T08:54:03.913Z,19.30
2023-04-09T08:58:10.717Z,18.90
2023-04-09T09:02:12.670Z,17.00
2023-04-09T09:06:21.902Z,16.77
2023-04-09T09:10:37.415Z,17.98
2023-04-09T09:14:38.871Z,17.60
2023-04-09T09:18:42.775Z,18.50
2023-04-09T09:22:54.863Z,18.05
2023-04-09T09:26:59.549Z,17.63
2023-04-09T09:31:11.089Z,17.17
2023-04-09T09:35:12.712Z,18.98
2023-04-09T09:39:17.243Z,18.92
2023-04-09T09:43:18.697Z,17.40
2023-04-09T09:47:21.823Z,17.90
2023-04-09T09:51:27.742Z,17.23
2023-04-09T09:55:32.275Z,17.02
2023-04-09T09:59:39.556Z,16.23
2023-04-09T10:03:44.191Z,16.33
2023-04-09T10:07:46.507Z,17.20
2023-04-09T10:11:48.832Z,16.67
2023-04-09T10:15:52.043Z,15.25
2023-04-09T10:20:11.611Z,16.27
2023-04-09T10:24:13.716Z,17.20
2023-04-09T10:28:17.547Z,16.98
2023-04-09T10:32:26.486Z,17.48
2023-04-09T10:36:31.537Z,17.55
2023-04-09T10:40:33.064Z,17.45
2023-04-09T10:44:38.059Z,17.58
2023-04-09T10:48:39.512Z,16.67
2023-04-09T10:52:42.344Z,17.73
2023-04-09T10:57:16.444Z,18.83
2023-04-09T11:01:24.264Z,18.75
2023-04-09T11:05:28.384Z,18.15
2023-04-09T11:09:29.799Z,17.95
2023-04-09T11:13:32.502Z,18.83
2023-04-09T11:17:36.969Z,19.52
2023-04-09T11:21:46.136Z,19.23
2023-04-09T11:25:51.690Z,17.70
2023-04-09T11:29:56.508Z,17.10
2023-04-09T11:33:57.948Z,16.90
2023-04-09T11:37:59.471Z,18.00
2023-04-09T11:42:01.853Z,17.42
2023-04-09T11:46:04.614Z,17.83
2023-04-09T11:50:07.955Z,16.00
2023-04-09T11:54:11.629Z,16.75
2023-04-09T11:58:13.286Z,16.63
2023-04-09T12:02:19.227Z,16.70
2023-04-09T12:06:25.100Z,16.67
2023-04-09T12:10:32.188Z,14.60
2023-04-09T12:14:34.927Z,15.45
2023-04-09T12:18:38.155Z,14.80
2023-04-09T12:22:41.248Z,15.02
2023-04-09T12:26:43.550Z,13.15
2023-04-09T12:30:45.350Z,13.45
2023-04-09T12:34:47.401Z,11.35
2023-04-09T12:38:48.871Z,11.93
2023-04-09T12:42:50.372Z,10.95
2023-04-09T12:46:51.898Z,9.82
2023-04-09T12:50:53.489Z,12.05
2023-04-09T12:54:55.072Z,11.05
2023-04-09T12:58:56.793Z,11.02
2023-04-09T13:02:58.410Z,9.57
2023-04-09T13:06:59.946Z,9.73
2023-04-09T13:11:01.623Z,10.90
2023-04-09T13:15:03.874Z,9.85
2023-04-09T13:19:06.807Z,8.40
2023-04-09T13:23:08.292Z,8.63
2023-04-09T13:27:11.193Z,10.25
2023-04-09T13:31:12.857Z,9.60
2023-04-09T13:35:14.544Z,9.70
2023-04-09T13:39:16.104Z,7.88
2023-04-09T13:43:17.635Z,21.17
2023-04-09T13:47:19.445Z,9.55
2023-04-09T13:51:24.074Z,10.35
2023-04-09T13:55:25.789Z,9.18
2023-04-09T13:59:27.307Z,9.15
2023-04-09T14:03:28.793Z,10.38
2023-04-09T14:07:30.802Z,8.00
2023-04-09T14:11:32.347Z,9.40
2023-04-09T14:15:34.899Z,9.20
2023-04-09T14:19:36.342Z,9.38
2023-04-09T14:23:39.490Z,9.45
2023-04-09T14:27:41.111Z,8.77
2023-04-09T14:31:42.806Z,9.45
2023-04-09T14:35:44.511Z,8.65
2023-04-09T14:39:46.008Z,7.30
2023-04-09T14:43:47.477Z,7.63
2023-04-09T14:47:48.991Z,7.60
2023-04-09T14:51:50.560Z,6.65
2023-04-09T14:55:51.978Z,7.57
2023-04-09T14:59:53.402Z,7.13
2023-04-09T15:03:55.233Z,7.32
2023-04-09T15:07:57.238Z,8.57
2023-04-09T15:11:58.695Z,7.85
2023-04-09T15:16:00.459Z,8.15
2023-04-09T15:20:02.046Z,7.18
2023-04-09T15:24:03.741Z,6.80
2023-04-09T15:28:06.364Z,6.78
2023-04-09T15:32:07.890Z,6.15
2023-04-09T15:36:09.484Z,7.50
2023-04-09T15:40:11.516Z,7.68
2023-04-09T15:44:12.941Z,7.05
2023-04-09T15:48:14.535Z,7.90
2023-04-09T15:52:16.088Z,8.07
2023-04-09T15:56:17.532Z,7.55
2023-04-09T16:00:19.049Z,8.48
2023-04-09T16:04:20.683Z,8.60
2023-04-09T16:08:22.098Z,8.00
2023-04-09T16:12:24.753Z,10.85
2023-04-09T16:16:26.258Z,12.40
2023-04-09T16:20:29.289Z,13.13
2023-04-09T16:24:31.622Z,14.18
2023-04-09T16:28:33.166Z,12.25
2023-04-09T16:32:34.670Z,12.90
2023-04-09T16:36:38.736Z,12.82
2023-04-09T16:40:40.477Z,12.43
2023-04-09T16:44:42.093Z,13.10
2023-04-09T16:48:43.574Z,11.70
2023-04-09T16:52:45.062Z,13.40
2023-04-09T16:56:48.384Z,11.23
2023-04-09T17:00:51.874Z,11.15
2023-04-09T17:04:53.945Z,12.15
2023-04-09T17:08:55.430Z,12.00
2023-04-09T17:12:56.849Z,11.30
2023-04-09T17:16:58.339Z,10.95
2023-04-09T17:20:59.934Z,11.27
2023-04-09T17:25:01.895Z,11.38
2023-04-09T17:29:03.423Z,12.15
2023-04-09T17:33:04.934Z,11.10
2023-04-09T17:37:06.462Z,10.82
2023-04-09T17:41:07.885Z,10.60
2023-04-09T17:45:09.848Z,11.00
2023-04-09T17:49:11.865Z,11.30
2023-04-09T17:53:13.406Z,10.85
2023-04-09T17:57:15.416Z,11.05
2023-04-09T18:01:17.029Z,11.07
2023-04-09T18:05:18.613Z,10.05
2023-04-09T18:09:20.343Z,9.23
2023-04-09T18:13:22.929Z,17.75
2023-04-09T18:17:26.208Z,27.40
2023-04-09T18:21:28.535Z,12.30
2023-04-09T18:25:30.240Z,12.13
2023-04-09T18:29:31.930Z,11.68
2023-04-09T18:33:34.122Z,12.40
2023-04-09T18:37:35.626Z,11.27
2023-04-09T18:41:37.123Z,11.82
2023-04-09T18:45:42.012Z,12.93
2023-04-09T18:49:43.532Z,12.30
2023-04-09T18:53:45.219Z,12.07
2023-04-09T18:57:47.203Z,11.95
2023-04-09T19:01:48.796Z,12.80
2023-04-09T19:05:51.314Z,12.02
2023-04-09T19:09:52.794Z,11.23
2023-04-09T19:13:54.242Z,10.88
2023-04-09T19:17:56.827Z,12.57
2023-04-09T19:21:58.634Z,11.80
2023-04-09T19:26:01.118Z,13.40
2023-04-09T19:30:04.705Z,12.93
2023-04-09T19:34:06.389Z,13.95
2023-04-09T19:38:08.193Z,14.05
2023-04-09T19:42:09.841Z,14.25
2023-04-09T19:46:11.463Z,14.02
2023-04-09T19:50:13.354Z,15.05
2023-04-09T19:54:16.530Z,15.93
2023-04-09T19:58:17.991Z,15.32
2023-04-09T20:02:19.831Z,40.10
2023-04-09T20:06:21.902Z,26.60
2023-04-09T20:10:23.427Z,17.73
2023-04-09T20:14:25.053Z,16.02
2023-04-09T20:18:26.653Z,16.90
2023-04-09T20:22:28.974Z,19.27
2023-04-09T20:26:30.978Z,19.77
2023-04-09T20:30:32.583Z,18.98
2023-04-09T20:34:34.046Z,19.50
2023-04-09T20:38:35.577Z,19.50
2023-04-09T20:42:38.428Z,19.02
2023-04-09T20:46:39.912Z,22.15
2023-04-09T20:50:42.062Z,19.52
2023-04-09T20:54:43.511Z,19.60
2023-04-09T20:58:45.083Z,20.45
2023-04-09T21:02:46.664Z,19.42
2023-04-09T21:06:48.266Z,18.52
2023-04-09T21:10:49.665Z,21.38
2023-04-09T21:14:51.094Z,23.38
2023-04-09T21:18:53.089Z,20.52
2023-04-09T21:22:54.864Z,21.23
2023-04-09T21:26:56.814Z,20.17
2023-04-09T21:30:58.451Z,21.30
2023-04-09T21:35:00.025Z,21.02
2023-04-09T21:39:01.580Z,21.90
2023-04-09T21:43:03.174Z,24.42
2023-04-09T21:47:07.529Z,23.70
2023-04-09T21:51:10.548Z,21.45
2023-04-09T21:55:12.017Z,22.50
2023-04-09T21:59:13.440Z,21.40
2023-04-09T22:03:15.864Z,21.65
2023-04-09T22:07:17.435Z,23.58
2023-04-09T22:11:19.204Z,21.52
2023-04-09T22:15:21.878Z,21.65
2023-04-09T22:19:26.073Z,22.33
2023-04-09T22:23:27.573Z,21.98
2023-04-09T22:27:29.028Z,21.63
2023-04-09T22:31:30.469Z,22.75
2023-04-09T22:35:32.113Z,24.35
2023-04-09T22:39:33.615Z,24.58
2023-04-09T22:43:35.071Z,25.35
2023-04-09T22:47:37.204Z,23.30
2023-04-09T22:51:41.383Z,23.10
2023-04-09T22:55:43.264Z,23.08
2023-04-09T22:59:44.763Z,23.08
2023-04-09T23:03:46.429Z,21.80
2023-04-09T23:07:48.150Z,21.52
2023-04-09T23:11:49.624Z,21.10
2023-04-09T23:15:51.137Z,20.35
2023-04-09T23:19:52.691Z,22.67
2023-04-09T23:23:54.259Z,21.75
2023-04-09T23:27:55.882Z,21.75
2023-04-09T23:31:57.347Z,21.15
2023-04-09T23:35:58.798Z,20.70
2023-04-09T23:40:00.345Z,21.17
2023-04-09T23:44:01.893Z,20.30
2023-04-09T23:48:07.281Z,21.20
2023-04-09T23:52:08.783Z,21.60
2023-04-09T23:56:10.210Z,21.35
